Time;durP1;ratioP1;P1;durP2;ratioP2;P2;SDS_P1;SDS_P2;PMS_P1;PMS_P2;Temp;Humidity;BMP_temperature;BMP_pressure;BME280_temperature;BME280_humidity;BME280_pressure;Samples;Min_cycle;Max_cycle;Signal;HPM_P1;HPM_P2
2021/09/22 00:00:06;;;;;;;21.87;18.70;;;11.50;99.90;;;;;;6120916;23;20483;-89
2021/09/22 00:02:33;;;;;;;20.67;17.53;;;11.50;99.90;;;;;;6100506;23;20473;-90
2021/09/22 00:05:00;;;;;;;22.07;19.67;;;11.50;99.90;;;;;;6104597;23;20425;-91
2021/09/22 00:07:28;;;;;;;20.93;18.43;;;11.50;99.90;;;;;;6113532;23;20432;-90
2021/09/22 00:09:54;;;;;;;24.63;22.10;;;11.50;99.90;;;;;;6106630;23;20404;-91
2021/09/22 00:12:21;;;;;;;22.53;19.73;;;11.60;99.90;;;;;;6099441;23;20444;-91
2021/09/22 00:14:48;;;;;;;20.47;17.57;;;11.50;99.90;;;;;;6116788;23;20420;-89
2021/09/22 00:17:14;;;;;;;22.27;19.10;;;11.40;99.90;;;;;;6117201;23;20506;-89
2021/09/22 00:19:41;;;;;;;22.77;18.20;;;11.40;99.90;;;;;;6106548;23;20432;-91
2021/09/22 00:22:08;;;;;;;21.13;18.53;;;11.40;99.90;;;;;;6113945;23;20436;-91
2021/09/22 00:24:36;;;;;;;22.90;18.37;;;11.60;99.90;;;;;;6120770;23;20436;-91
2021/09/22 00:27:03;;;;;;;21.40;19.10;;;11.40;99.90;;;;;;6122628;23;20416;-91
2021/09/22 00:29:30;;;;;;;21.77;18.53;;;11.30;99.90;;;;;;6118964;23;20405;-90
2021/09/22 00:31:57;;;;;;;21.23;18.03;;;11.20;99.90;;;;;;6116755;23;20424;-90
2021/09/22 00:34:24;;;;;;;21.80;19.50;;;11.20;99.90;;;;;;6102740;23;20429;-91
2021/09/22 00:36:50;;;;;;;19.63;17.27;;;11.10;99.90;;;;;;6102086;23;20886;-91
2021/09/22 00:39:17;;;;;;;22.50;18.77;;;11.00;99.90;;;;;;6101908;23;20381;-91
2021/09/22 00:41:45;;;;;;;20.90;18.70;;;11.00;99.90;;;;;;6099975;23;20412;-90
2021/09/22 00:44:12;;;;;;;21.57;19.27;;;11.00;99.90;;;;;;6100967;23;20429;-91
2021/09/22 00:46:39;;;;;;;22.00;19.60;;;11.10;99.90;;;;;;6104865;23;20402;-91
2021/09/22 00:49:06;;;;;;;22.70;20.40;;;11.10;99.90;;;;;;6110639;23;20408;-90
2021/09/22 00:51:33;;;;;;;21.40;17.90;;;11.10;99.90;;;;;;6107061;23;20436;-89
2021/09/22 00:54:00;;;;;;;20.40;17.63;;;11.10;99.90;;;;;;6102584;23;20413;-90
2021/09/22 00:56:27;;;;;;;22.90;19.50;;;11.00;99.90;;;;;;6102422;23;20895;-90
2021/09/22 00:58:55;;;;;;;19.03;17.00;;;11.00;99.90;;;;;;6114302;23;20418;-91
2021/09/22 01:01:22;;;;;;;22.50;17.10;;;11.00;99.90;;;;;;6118399;23;20451;-90
2021/09/22 01:03:48;;;;;;;20.30;18.20;;;11.10;99.90;;;;;;6112813;23;20670;-92
2021/09/22 01:06:16;;;;;;;22.60;18.40;;;11.10;99.90;;;;;;6098555;23;20405;-91
2021/09/22 01:08:43;;;;;;;22.87;18.77;;;11.20;99.90;;;;;;6101107;23;20448;-91
2021/09/22 01:11:10;;;;;;;21.93;19.07;;;11.20;99.90;;;;;;6100422;23;20400;-90
2021/09/22 01:13:37;;;;;;;21.90;19.10;;;11.20;99.90;;;;;;6098085;23;20413;-91
2021/09/22 01:16:06;;;;;;;22.80;18.87;;;11.10;99.90;;;;;;6098018;23;20881;-91
2021/09/22 01:18:33;;;;;;;23.97;18.90;;;11.10;99.90;;;;;;6097198;23;20442;-90
2021/09/22 01:21:00;;;;;;;22.30;19.20;;;11.10;99.90;;;;;;6097862;23;20451;-91
2021/09/22 01:23:29;;;;;;;23.23;19.03;;;11.00;99.90;;;;;;6097784;23;20750;-91
2021/09/22 01:25:57;;;;;;;21.70;19.17;;;11.00;99.90;;;;;;6097110;23;20500;-91
2021/09/22 01:28:27;;;;;;;19.20;17.30;;;11.00;99.90;;;;;;6097628;23;20409;-91
2021/09/22 01:30:54;;;;;;;20.43;18.30;;;10.90;99.90;;;;;;6097818;23;20416;-90
2021/09/22 01:33:24;;;;;;;18.37;16.50;;;10.90;99.90;;;;;;6097519;23;20381;-91
2021/09/22 01:35:51;;;;;;;18.30;16.50;;;10.90;99.90;;;;;;6097414;23;20432;-90
2021/09/22 01:38:19;;;;;;;19.03;17.10;;;10.90;99.90;;;;;;6097025;23;20412;-91
2021/09/22 01:40:56;;;;;;;17.47;15.30;;;10.90;99.90;;;;;;6097182;23;20456;-90
2021/09/22 01:43:23;;;;;;;17.13;15.43;;;10.80;99.90;;;;;;6097793;23;20399;-91
2021/09/22 01:45:50;;;;;;;17.67;15.97;;;10.70;99.90;;;;;;6113430;23;20433;-90
2021/09/22 01:48:17;;;;;;;16.83;15.13;;;10.70;99.90;;;;;;6121196;23;20408;-91
2021/09/22 01:50:44;;;;;;;15.63;14.00;;;10.60;99.90;;;;;;6108385;23;20381;-90
2021/09/22 01:53:11;;;;;;;17.87;15.80;;;10.50;99.90;;;;;;6114794;23;20475;-91
2021/09/22 01:55:38;;;;;;;15.70;14.03;;;10.60;99.90;;;;;;6106615;23;20416;-90
2021/09/22 01:58:06;;;;;;;17.77;15.97;;;10.60;99.90;;;;;;6107709;23;20495;-91
2021/09/22 02:00:33;;;;;;;15.93;14.30;;;10.60;99.90;;;;;;6097836;23;20444;-90
2021/09/22 02:03:00;;;;;;;21.13;18.90;;;10.50;99.90;;;;;;6101411;23;20451;-90
2021/09/22 02:05:27;;;;;;;23.70;18.80;;;10.60;99.90;;;;;;6097299;23;20440;-88
2021/09/22 02:07:53;;;;;;;22.10;17.37;;;10.50;99.90;;;;;;6113686;23;20420;-89
2021/09/22 02:10:20;;;;;;;20.67;18.47;;;10.50;99.90;;;;;;6113546;23;20401;-92
2021/09/22 02:12:47;;;;;;;19.73;17.60;;;10.50;99.90;;;;;;6098212;23;20417;-89
2021/09/22 02:15:15;;;;;;;18.63;16.73;;;10.40;99.90;;;;;;6097010;23;20424;-91
2021/09/22 02:17:42;;;;;;;22.13;16.83;;;10.40;99.90;;;;;;6097975;23;20903;-91
2021/09/22 02:20:11;;;;;;;19.63;17.37;;;10.40;99.90;;;;;;6099264;23;20947;-90
2021/09/22 02:22:38;;;;;;;24.10;16.77;;;10.40;99.90;;;;;;6101441;23;20404;-90
2021/09/22 02:25:06;;;;;;;18.73;16.83;;;10.40;99.90;;;;;;6099866;23;20798;-91
2021/09/22 02:27:33;;;;;;;25.53;18.00;;;10.40;99.90;;;;;;6105193;23;20412;-88
2021/09/22 02:30:00;;;;;;;21.77;17.90;;;10.40;99.90;;;;;;6107201;23;20404;-90
2021/09/22 02:32:28;;;;;;;23.47;17.73;;;10.40;99.90;;;;;;6106558;23;20904;-89
2021/09/22 02:34:55;;;;;;;21.93;18.03;;;10.30;99.90;;;;;;6106547;23;20462;-90
2021/09/22 02:37:22;;;;;;;20.43;16.33;;;10.40;99.90;;;;;;6118733;23;20412;-91
2021/09/22 02:39:49;;;;;;;22.10;18.73;;;10.30;99.90;;;;;;6124829;23;20472;-89
2021/09/22 02:42:16;;;;;;;21.07;18.83;;;10.30;99.90;;;;;;6120448;23;20420;-90
2021/09/22 02:44:42;;;;;;;23.37;18.80;;;10.30;99.90;;;;;;6124469;23;20416;-87
2021/09/22 02:47:09;;;;;;;25.90;18.47;;;10.30;99.90;;;;;;6114974;23;20411;-89
2021/09/22 02:49:37;;;;;;;25.07;19.33;;;10.30;99.90;;;;;;6104807;23;20412;-89
2021/09/22 02:52:05;;;;;;;23.30;20.80;;;10.20;99.90;;;;;;6101179;23;20460;-89
2021/09/22 02:54:31;;;;;;;22.63;20.03;;;10.20;99.90;;;;;;6110455;23;20455;-87
2021/09/22 02:56:58;;;;;;;24.53;21.70;;;10.20;99.90;;;;;;6130497;23;20384;-89
2021/09/22 02:59:25;;;;;;;33.80;21.17;;;10.20;99.90;;;;;;6127919;23;20408;-90
2021/09/22 03:01:52;;;;;;;25.53;20.07;;;10.20;99.90;;;;;;6128558;23;20526;-89
2021/09/22 03:04:19;;;;;;;23.73;19.80;;;10.20;99.90;;;;;;6129462;23;20396;-89
2021/09/22 03:06:47;;;;;;;21.77;17.77;;;10.10;99.90;;;;;;6132684;23;20453;-88
2021/09/22 03:09:15;;;;;;;20.93;18.70;;;10.10;99.90;;;;;;6154710;23;20444;-88
2021/09/22 03:11:42;;;;;;;21.40;18.97;;;10.10;99.90;;;;;;6155941;23;20471;-88
2021/09/22 03:14:09;;;;;;;23.10;18.77;;;10.10;99.90;;;;;;6140769;23;20411;-89
2021/09/22 03:16:36;;;;;;;20.67;18.67;;;10.10;99.90;;;;;;6133130;23;20412;-89
2021/09/22 03:19:03;;;;;;;21.00;17.40;;;10.10;99.90;;;;;;6145089;23;20459;-89
2021/09/22 03:21:31;;;;;;;23.20;20.10;;;10.10;99.90;;;;;;6143183;23;20506;-89
2021/09/22 03:23:59;;;;;;;23.10;18.13;;;10.10;99.90;;;;;;6145792;23;20463;-89
2021/09/22 03:26:26;;;;;;;21.83;18.60;;;10.10;99.90;;;;;;6129577;23;20431;-89
2021/09/22 03:28:53;;;;;;;24.70;20.80;;;10.10;99.90;;;;;;6134872;23;20416;-88
2021/09/22 03:31:20;;;;;;;22.93;18.43;;;10.10;99.90;;;;;;6150503;23;20491;-88
2021/09/22 03:33:47;;;;;;;20.33;18.17;;;10.10;99.90;;;;;;6128229;23;20411;-89
2021/09/22 03:36:13;;;;;;;18.70;16.70;;;10.10;99.90;;;;;;6136406;23;20432;-89
2021/09/22 03:38:40;;;;;;;20.30;16.70;;;10.00;99.90;;;;;;6149983;23;20530;-89
2021/09/22 03:41:09;;;;;;;19.40;17.40;;;9.90;99.90;;;;;;6134877;23;20432;-89
2021/09/22 03:43:36;;;;;;;22.83;17.90;;;9.90;99.90;;;;;;6128081;23;20400;-90
2021/09/22 03:46:05;;;;;;;22.67;17.57;;;9.90;99.90;;;;;;6130059;23;20506;-90
2021/09/22 03:48:31;;;;;;;20.30;18.20;;;9.90;99.90;;;;;;6126950;23;20412;-88
2021/09/22 03:50:58;;;;;;;22.23;19.07;;;9.90;99.90;;;;;;6128713;23;20410;-89
2021/09/22 03:53:25;;;;;;;20.00;17.80;;;9.90;99.90;;;;;;6128744;23;20441;-90
2021/09/22 03:55:52;;;;;;;20.57;18.00;;;9.90;99.90;;;;;;6129613;23;20946;-89
2021/09/22 03:58:20;;;;;;;18.37;16.13;;;10.00;99.90;;;;;;6127638;23;20417;-89
2021/09/22 04:00:47;;;;;;;21.37;18.07;;;10.00;99.90;;;;;;6127947;23;20439;-90
2021/09/22 04:03:14;;;;;;;22.27;18.13;;;9.90;99.90;;;;;;6128322;23;20439;-89
2021/09/22 04:05:41;;;;;;;19.33;17.37;;;9.90;99.90;;;;;;6128667;23;20412;-89
2021/09/22 04:08:08;;;;;;;21.20;18.37;;;10.00;99.90;;;;;;6128565;23;20414;-90
2021/09/22 04:10:35;;;;;;;24.73;19.47;;;9.90;99.90;;;;;;6127366;23;20419;-89
2021/09/22 04:13:01;;;;;;;19.40;17.30;;;9.80;99.90;;;;;;6128059;23;20793;-90
2021/09/22 04:15:30;;;;;;;21.20;18.87;;;9.80;99.90;;;;;;6127289;23;20492;-89
2021/09/22 04:17:57;;;;;;;20.73;17.80;;;9.80;99.90;;;;;;6127835;23;20418;-89
2021/09/22 04:20:23;;;;;;;19.97;16.27;;;9.80;99.90;;;;;;6127263;23;20852;-89
2021/09/22 04:22:50;;;;;;;21.03;16.67;;;9.80;99.90;;;;;;6128160;23;20415;-90
2021/09/22 04:25:17;;;;;;;32.67;23.60;;;9.80;99.90;;;;;;6128508;23;20416;-89
2021/09/22 04:27:44;;;;;;;25.00;18.80;;;9.80;99.90;;;;;;6131417;23;21068;-90
2021/09/22 04:30:12;;;;;;;21.63;19.27;;;9.80;99.90;;;;;;6149642;23;20464;-89
2021/09/22 04:32:40;;;;;;;20.97;16.93;;;9.70;99.90;;;;;;6132642;23;20396;-89
2021/09/22 04:35:07;;;;;;;22.00;19.10;;;9.70;99.90;;;;;;6127962;23;20760;-89
2021/09/22 04:37:38;;;;;;;23.07;20.20;;;9.70;99.90;;;;;;6127943;23;20422;-89
2021/09/22 04:40:09;;;;;;;24.77;17.50;;;9.80;99.90;;;;;;6134463;23;20419;-88
2021/09/22 04:42:36;;;;;;;24.40;19.00;;;9.70;99.90;;;;;;6138980;23;20518;-90
2021/09/22 04:45:05;;;;;;;21.90;18.60;;;9.70;99.90;;;;;;6138078;23;20412;-89
2021/09/22 04:47:31;;;;;;;21.20;18.00;;;9.60;99.90;;;;;;6153756;23;20817;-90
2021/09/22 04:50:01;;;;;;;22.33;17.30;;;9.60;99.90;;;;;;6150885;23;20402;-89
2021/09/22 04:52:28;;;;;;;20.97;17.63;;;9.70;99.90;;;;;;6151175;23;20411;-89
2021/09/22 04:54:55;;;;;;;22.60;19.40;;;9.60;99.90;;;;;;6149315;23;20530;-89
2021/09/22 04:57:22;;;;;;;23.60;18.17;;;9.60;99.90;;;;;;6140270;23;20478;-89
2021/09/22 04:59:48;;;;;;;22.87;18.43;;;9.60;99.90;;;;;;6131784;23;20869;-90
2021/09/22 05:02:15;;;;;;;21.40;18.67;;;9.60;99.90;;;;;;6129372;23;20455;-90
2021/09/22 05:04:42;;;;;;;22.40;19.50;;;9.60;99.90;;;;;;6127550;23;20452;-89
2021/09/22 05:07:10;;;;;;;24.50;19.60;;;9.50;99.90;;;;;;6130508;23;20910;-89
2021/09/22 05:09:39;;;;;;;22.63;17.93;;;9.50;99.90;;;;;;6147134;23;20418;-89
2021/09/22 05:12:06;;;;;;;22.63;19.43;;;9.50;99.90;;;;;;6153345;23;20403;-89
2021/09/22 05:14:33;;;;;;;25.17;19.47;;;9.50;99.90;;;;;;6133201;23;20418;-89
2021/09/22 05:17:00;;;;;;;23.57;17.70;;;9.50;99.90;;;;;;6135339;23;20418;-89
2021/09/22 05:19:27;;;;;;;27.63;20.10;;;9.50;99.90;;;;;;6136378;23;20490;-89
2021/09/22 05:21:55;;;;;;;29.87;20.47;;;9.50;99.90;;;;;;6145403;23;20535;-90
2021/09/22 05:24:23;;;;;;;29.20;19.40;;;9.60;99.90;;;;;;6147029;23;20408;-89
2021/09/22 05:26:50;;;;;;;31.30;20.50;;;9.60;99.90;;;;;;6131380;23;20402;-89
2021/09/22 05:29:17;;;;;;;23.80;19.73;;;9.60;99.90;;;;;;6130296;23;20416;-90
2021/09/22 05:31:44;;;;;;;23.57;18.53;;;9.70;99.90;;;;;;6136125;23;20423;-89
2021/09/22 05:34:11;;;;;;;22.67;19.20;;;9.70;99.90;;;;;;6133564;23;20491;-90
2021/09/22 05:36:38;;;;;;;24.10;19.97;;;10.20;99.90;;;;;;6131863;23;20427;-90
2021/09/22 05:39:25;;;;;;;28.70;20.70;;;9.70;99.90;;;;;;6136209;23;20950;-90
2021/09/22 05:41:54;;;;;;;33.20;19.77;;;9.70;99.90;;;;;;6129849;23;20507;-89
2021/09/22 05:44:21;;;;;;;26.47;19.87;;;9.70;99.90;;;;;;6142904;23;20434;-90
2021/09/22 05:46:48;;;;;;;24.73;18.83;;;9.80;99.90;;;;;;6105329;23;20423;-89
2021/09/22 05:49:16;;;;;;;31.10;21.80;;;9.90;99.90;;;;;;6132285;23;20392;-89
2021/09/22 05:51:42;;;;;;;26.70;20.00;;;9.90;99.90;;;;;;6131443;23;20438;-89
2021/09/22 05:54:09;;;;;;;27.90;19.60;;;10.00;99.90;;;;;;6131664;23;20388;-89
2021/09/22 05:56:36;;;;;;;30.80;21.43;;;10.00;99.90;;;;;;6127114;23;20502;-89
2021/09/22 05:59:04;;;;;;;29.73;20.43;;;10.00;99.90;;;;;;6126917;23;20407;-88
2021/09/22 06:01:31;;;;;;;35.97;22.07;;;10.00;99.90;;;;;;6128257;23;20555;-89
2021/09/22 06:03:58;;;;;;;27.17;21.00;;;10.10;99.90;;;;;;6134152;23;20408;-89
2021/09/22 06:06:25;;;;;;;30.33;20.60;;;10.20;99.90;;;;;;6148262;23;20451;-89
2021/09/22 06:08:52;;;;;;;28.60;20.97;;;10.20;99.90;;;;;;6148899;23;20404;-90
2021/09/22 06:11:19;;;;;;;25.60;18.90;;;10.30;99.90;;;;;;6147406;23;20415;-89
2021/09/22 06:13:52;;;;;;;22.83;18.90;;;10.40;99.90;;;;;;6136467;23;20407;-90
2021/09/22 06:16:20;;;;;;;25.87;19.40;;;10.40;99.90;;;;;;6137110;23;20435;-88
2021/09/22 06:18:47;;;;;;;25.37;19.97;;;10.50;99.90;;;;;;6140632;23;20483;-89
2021/09/22 06:21:14;;;;;;;26.07;21.93;;;10.50;99.90;;;;;;6138205;23;20439;-90
2021/09/22 06:23:41;;;;;;;29.40;21.00;;;10.60;99.90;;;;;;6135720;23;20475;-89
2021/09/22 06:26:08;;;;;;;27.83;20.50;;;10.60;99.90;;;;;;6135118;23;20416;-89
2021/09/22 06:28:35;;;;;;;30.87;22.07;;;10.70;99.90;;;;;;6133896;23;20408;-89
2021/09/22 06:31:02;;;;;;;25.27;20.00;;;10.80;99.90;;;;;;6151261;23;20455;-88
2021/09/22 06:33:31;;;;;;;30.90;20.40;;;10.90;99.90;;;;;;6153572;23;20400;-88
2021/09/22 06:36:00;;;;;;;21.47;19.27;;;10.90;99.90;;;;;;6152695;23;20426;-89
2021/09/22 06:38:27;;;;;;;23.37;20.23;;;11.00;99.90;;;;;;6152961;23;20414;-88
2021/09/22 06:40:54;;;;;;;29.13;20.27;;;11.10;99.90;;;;;;6150417;23;20423;-89
2021/09/22 06:43:21;;;;;;;24.93;20.30;;;11.20;99.90;;;;;;6144772;23;20415;-90
2021/09/22 06:45:48;;;;;;;26.57;21.97;;;11.20;99.90;;;;;;6150114;23;20484;-87
2021/09/22 06:48:16;;;;;;;29.50;21.00;;;11.30;99.90;;;;;;6151996;23;20469;-87
2021/09/22 06:50:45;;;;;;;21.03;18.20;;;11.40;99.90;;;;;;6150754;23;20395;-88
2021/09/22 06:53:12;;;;;;;22.90;19.70;;;11.50;99.90;;;;;;6132491;23;20410;-88
2021/09/22 06:55:39;;;;;;;29.97;20.70;;;11.50;99.90;;;;;;6131579;23;20426;-89
2021/09/22 06:58:06;;;;;;;23.70;19.20;;;11.70;99.90;;;;;;6130986;23;20420;-89
2021/09/22 07:00:33;;;;;;;23.43;19.27;;;11.70;99.90;;;;;;6134068;23;20842;-89
2021/09/22 07:03:02;;;;;;;23.97;19.90;;;11.80;99.90;;;;;;6139091;23;20444;-89
2021/09/22 07:05:29;;;;;;;20.97;18.77;;;11.90;99.90;;;;;;6144616;23;20449;-89
2021/09/22 07:07:57;;;;;;;21.77;18.47;;;12.00;99.90;;;;;;6153635;23;20455;-89
2021/09/22 07:10:24;;;;;;;20.53;18.10;;;12.10;99.90;;;;;;6152894;23;20480;-88
2021/09/22 07:12:52;;;;;;;21.30;19.00;;;12.20;99.90;;;;;;6151893;23;20439;-89
2021/09/22 07:15:19;;;;;;;21.67;19.37;;;12.30;99.90;;;;;;6140020;23;20519;-89
2021/09/22 07:17:46;;;;;;;24.20;21.70;;;12.30;99.90;;;;;;6134518;23;20455;-89
2021/09/22 07:20:14;;;;;;;23.67;21.20;;;12.50;99.90;;;;;;6132187;23;20410;-90
2021/09/22 07:22:42;;;;;;;24.03;20.00;;;12.60;99.90;;;;;;6132295;23;20535;-89
2021/09/22 07:25:11;;;;;;;26.07;23.40;;;12.60;99.90;;;;;;6131119;23;20805;-90
2021/09/22 07:27:38;;;;;;;23.03;19.77;;;12.80;99.90;;;;;;6130750;23;20399;-90
2021/09/22 07:30:07;;;;;;;27.63;21.80;;;12.80;99.90;;;;;;6128674;23;20887;-90
2021/09/22 07:32:34;;;;;;;24.87;21.00;;;12.80;99.90;;;;;;6127786;23;20412;-90
2021/09/22 07:35:03;;;;;;;23.03;19.50;;;12.90;99.90;;;;;;6127566;23;21107;-90
2021/09/22 07:37:52;;;;;;;22.23;19.40;;;13.00;99.90;;;;;;6128255;23;20483;-89
2021/09/22 07:40:29;;;;;;;22.60;19.57;;;13.00;99.90;;;;;;6127851;23;20845;-90
2021/09/22 07:42:57;;;;;;;26.60;20.30;;;13.10;99.90;;;;;;6128080;23;20419;-90
2021/09/22 07:45:25;;;;;;;19.80;17.67;;;13.30;99.90;;;;;;6127625;23;20454;-90
2021/09/22 07:47:57;;;;;;;24.07;19.70;;;13.40;99.90;;;;;;6128909;23;20423;-89
2021/09/22 07:50:24;;;;;;;26.60;19.77;;;13.70;99.90;;;;;;6129492;23;20422;-88
2021/09/22 07:52:52;;;;;;;23.17;20.67;;;13.70;99.90;;;;;;6129567;23;20408;-88
2021/09/22 07:55:22;;;;;;;24.47;20.13;;;13.90;99.90;;;;;;6129755;23;20522;-88
2021/09/22 07:57:52;;;;;;;22.73;19.20;;;13.90;99.90;;;;;;6141928;23;20377;-88
2021/09/22 08:00:29;;;;;;;24.93;19.00;;;14.10;99.90;;;;;;6147523;23;20503;-88
2021/09/22 08:02:58;;;;;;;22.90;17.00;;;14.10;99.90;;;;;;6152288;23;20441;-89
2021/09/22 08:05:26;;;;;;;24.00;18.67;;;14.10;99.90;;;;;;6147301;23;20442;-89
2021/09/22 08:07:53;;;;;;;23.23;20.00;;;14.00;99.90;;;;;;6131587;23;20640;-88
2021/09/22 08:10:22;;;;;;;20.17;17.73;;;14.30;99.90;;;;;;6139307;23;20438;-88
2021/09/22 08:12:50;;;;;;;20.20;18.20;;;14.40;99.90;;;;;;6130615;23;20410;-88
2021/09/22 08:15:17;;;;;;;19.10;17.30;;;14.60;99.90;;;;;;6130058;23;20513;-88
2021/09/22 08:17:44;;;;;;;21.23;18.67;;;14.50;99.90;;;;;;6128811;23;20416;-89
2021/09/22 08:20:14;;;;;;;22.83;20.37;;;14.80;99.90;;;;;;6140608;23;20407;-89
2021/09/22 08:22:41;;;;;;;20.03;17.50;;;15.10;99.90;;;;;;6145991;23;20479;-88
2021/09/22 08:25:09;;;;;;;25.50;19.63;;;15.40;99.90;;;;;;6130392;23;20427;-88
2021/09/22 08:27:37;;;;;;;23.30;19.40;;;15.20;99.90;;;;;;6130875;23;20415;-88
2021/09/22 08:30:05;;;;;;;21.13;18.57;;;15.50;99.90;;;;;;6128648;23;20924;-88
2021/09/22 08:32:34;;;;;;;25.93;19.23;;;15.70;99.90;;;;;;6127771;23;20416;-89
2021/09/22 08:35:01;;;;;;;21.03;18.83;;;15.90;99.90;;;;;;6129131;23;20416;-88
2021/09/22 08:37:28;;;;;;;19.57;17.73;;;16.00;99.90;;;;;;6130309;23;20423;-88
2021/09/22 08:39:55;;;;;;;20.70;18.67;;;16.00;99.90;;;;;;6140604;23;20398;-88
2021/09/22 08:42:22;;;;;;;22.83;19.50;;;16.00;99.90;;;;;;6153661;23;20450;-89
2021/09/22 08:44:52;;;;;;;20.40;17.90;;;16.10;99.90;;;;;;6133596;23;20419;-89
2021/09/22 08:47:20;;;;;;;21.47;19.23;;;16.10;99.90;;;;;;6130492;23;20434;-90
2021/09/22 08:49:49;;;;;;;21.03;18.83;;;16.40;99.90;;;;;;6129729;23;20756;-89
2021/09/22 08:52:16;;;;;;;22.30;20.00;;;16.70;99.90;;;;;;6131084;23;20441;-89
2021/09/22 08:54:43;;;;;;;22.30;18.67;;;16.50;99.90;;;;;;6143421;23;20495;-89
2021/09/22 08:57:10;;;;;;;20.50;18.40;;;16.60;99.90;;;;;;6152338;23;20395;-90
2021/09/22 08:59:37;;;;;;;20.17;17.90;;;16.70;99.90;;;;;;6136266;23;20408;-84
2021/09/22 09:02:10;;;;;;;20.43;18.30;;;17.00;99.90;;;;;;6143965;23;20454;-81
2021/09/22 09:04:38;;;;;;;20.27;18.37;;;18.20;99.90;;;;;;6147084;23;20491;-82
2021/09/22 09:07:05;;;;;;;19.73;17.93;;;19.60;97.20;;;;;;6150121;23;20427;-81
2021/09/22 09:09:34;;;;;;;18.03;16.43;;;21.10;95.90;;;;;;6151520;23;20415;-81
2021/09/22 09:12:00;;;;;;;19.93;18.00;;;22.90;91.40;;;;;;6145495;23;20414;-82
2021/09/22 09:14:29;;;;;;;20.90;18.80;;;23.60;91.70;;;;;;6142225;23;20448;-82
2021/09/22 09:16:58;;;;;;;21.27;19.20;;;25.30;69.90;;;;;;6148435;23;20483;-81
2021/09/22 09:19:27;;;;;;;19.80;17.90;;;24.40;65.20;;;;;;6144786;23;20720;-84
2021/09/22 09:21:56;;;;;;;21.37;17.87;;;24.40;66.00;;;;;;6144121;23;20392;-82
2021/09/22 09:24:31;;;;;;;18.67;17.17;;;25.70;62.60;;;;;;6144184;23;20408;-83
2021/09/22 09:26:58;;;;;;;19.10;16.97;;;26.30;59.60;;;;;;6146254;23;20446;-83
2021/09/22 09:29:24;;;;;;;18.27;16.73;;;26.50;58.60;;;;;;6153436;23;20414;-83
2021/09/22 09:32:09;;;;;;;17.27;15.60;;;27.40;57.00;;;;;;6153616;23;20404;-83
2021/09/22 09:34:37;;;;;;;19.60;17.80;;;28.80;53.60;;;;;;6153760;23;20383;-83
2021/09/22 09:37:03;;;;;;;16.00;14.60;;;27.80;53.40;;;;;;6131844;23;20435;-83
2021/09/22 09:39:34;;;;;;;16.13;14.93;;;27.50;53.80;;;;;;6139759;23;20420;-86
2021/09/22 09:42:01;;;;;;;13.90;12.90;;;27.60;53.80;;;;;;6130927;23;20397;-84
2021/09/22 09:44:31;;;;;;;14.33;13.03;;;27.00;53.90;;;;;;6130947;23;20408;-83
2021/09/22 09:47:08;;;;;;;13.87;12.80;;;26.30;54.80;;;;;;6127373;23;20811;-84
2021/09/22 09:49:39;;;;;;;14.17;13.07;;;26.40;54.10;;;;;;6128136;23;20734;-84
2021/09/22 09:52:06;;;;;;;14.27;13.20;;;26.90;54.30;;;;;;6131893;23;20434;-84
2021/09/22 09:54:36;;;;;;;15.03;13.83;;;28.40;52.40;;;;;;6129881;23;20405;-84
2021/09/22 09:57:11;;;;;;;14.40;13.30;;;27.70;51.30;;;;;;6131214;23;20434;-84
2021/09/22 09:59:43;;;;;;;11.70;10.87;;;27.80;51.50;;;;;;6130027;23;20870;-84
2021/09/22 10:02:25;;;;;;;13.33;12.17;;;28.30;51.10;;;;;;6130558;23;20454;-84
2021/09/22 10:04:53;;;;;;;11.47;10.53;;;29.80;48.40;;;;;;6129533;23;20387;-84
2021/09/22 10:07:20;;;;;;;8.37;7.67;;;30.00;46.50;;;;;;6131895;23;20431;-84
2021/09/22 10:09:49;;;;;;;6.03;5.57;;;29.20;44.90;;;;;;6149654;23;20407;-84
2021/09/22 10:12:17;;;;;;;6.87;6.37;;;29.30;44.00;;;;;;6145257;23;20847;-85
2021/09/22 10:14:46;;;;;;;8.17;6.37;;;29.90;44.00;;;;;;6131828;23;20706;-84
2021/09/22 10:17:15;;;;;;;6.87;6.37;;;30.70;42.30;;;;;;6136459;23;20458;-86
2021/09/22 10:19:44;;;;;;;6.70;6.10;;;29.30;43.50;;;;;;6131263;23;20418;-86
2021/09/22 10:22:13;;;;;;;6.30;5.90;;;29.80;42.90;;;;;;6140959;23;20402;-86
2021/09/22 10:24:43;;;;;;;6.90;6.40;;;29.60;42.00;;;;;;6149895;23;20470;-85
2021/09/22 10:27:13;;;;;;;5.87;5.47;;;30.60;42.80;;;;;;6150007;23;20461;-85
2021/09/22 10:29:56;;;;;;;6.80;6.30;;;30.50;41.60;;;;;;6148292;23;20407;-86
2021/09/22 10:32:38;;;;;;;6.43;5.83;;;30.40;40.70;;;;;;6142707;23;20412;-86
2021/09/22 10:35:36;;;;;;;6.87;6.37;;;30.90;40.90;;;;;;6135996;23;20415;-85
2021/09/22 10:38:51;;;;;;;7.00;6.50;;;30.70;40.20;;;;;;6146246;23;20399;-85
2021/09/22 10:41:26;;;;;;;8.63;6.27;;;29.30;42.80;;;;;;6145692;23;20431;-84
2021/09/22 10:43:54;;;;;;;8.33;6.50;;;28.90;43.20;;;;;;6140585;23;20797;-85
2021/09/22 10:46:22;;;;;;;5.50;5.10;;;28.50;43.70;;;;;;6131114;23;20513;-85
2021/09/22 10:49:14;;;;;;;6.20;5.70;;;29.30;43.80;;;;;;6130880;23;20403;-85
2021/09/22 10:51:46;;;;;;;6.63;5.93;;;28.90;43.40;;;;;;6144767;23;20406;-85
2021/09/22 10:54:17;;;;;;;6.70;6.10;;;28.90;43.80;;;;;;6128215;23;20386;-85
2021/09/22 10:56:53;;;;;;;5.60;5.10;;;27.90;45.20;;;;;;6129591;23;20677;-86
2021/09/22 10:59:32;;;;;;;6.47;5.97;;;28.30;45.60;;;;;;6130695;23;20388;-86
2021/09/22 11:02:00;;;;;;;5.97;5.37;;;28.60;45.00;;;;;;6151992;23;20405;-86
2021/09/22 11:04:26;;;;;;;6.40;5.90;;;29.70;44.70;;;;;;6132288;23;20447;-86
2021/09/22 11:06:59;;;;;;;6.00;5.50;;;30.20;43.80;;;;;;6150568;23;20439;-86
2021/09/22 11:09:37;;;;;;;6.07;5.67;;;30.70;42.50;;;;;;6138204;23;20411;-86
2021/09/22 11:12:12;;;;;;;5.63;5.23;;;30.70;42.40;;;;;;6131823;23;20407;-86
2021/09/22 11:14:44;;;;;;;6.33;5.70;;;31.40;41.80;;;;;;6129853;23;20418;-86
2021/09/22 11:17:15;;;;;;;5.87;5.40;;;31.40;42.40;;;;;;6129303;23;20424;-87
2021/09/22 11:19:43;;;;;;;5.80;5.40;;;31.00;41.20;;;;;;6129828;23;20415;-87
2021/09/22 11:22:12;;;;;;;6.03;5.43;;;30.40;42.10;;;;;;6131750;23;20419;-86
2021/09/22 11:24:41;;;;;;;4.23;3.93;;;30.30;41.70;;;;;;6134318;23;20447;-85
2021/09/22 11:27:10;;;;;;;5.70;5.30;;;29.70;42.30;;;;;;6134613;23;20439;-86
2021/09/22 11:29:41;;;;;;;8.97;8.27;;;29.00;43.90;;;;;;6131996;23;20427;-85
2021/09/22 11:32:26;;;;;;;4.67;4.27;;;30.30;43.40;;;;;;6145073;23;20396;-86
2021/09/22 11:34:53;;;;;;;3.37;3.07;;;31.30;41.40;;;;;;6134375;23;20388;-86
2021/09/22 11:37:20;;;;;;;3.13;2.90;;;31.80;39.80;;;;;;6144575;23;20431;-86
2021/09/22 11:39:48;;;;;;;3.80;3.50;;;31.50;40.50;;;;;;6139686;23;20407;-86
2021/09/22 11:42:16;;;;;;;4.00;3.70;;;31.10;40.40;;;;;;6148581;23;20403;-86
2021/09/22 11:44:43;;;;;;;3.47;3.17;;;31.70;41.00;;;;;;6139828;23;20470;-87
2021/09/22 11:47:12;;;;;;;4.13;3.30;;;31.40;40.40;;;;;;6147804;23;20430;-87
2021/09/22 11:49:41;;;;;;;3.97;3.70;;;31.80;40.40;;;;;;6153571;23;20418;-87
2021/09/22 11:52:12;;;;;;;6.90;4.50;;;32.60;39.30;;;;;;6153991;23;20460;-87
2021/09/22 11:54:44;;;;;;;4.70;4.10;;;33.40;38.40;;;;;;6153228;23;20419;-86
2021/09/22 11:57:14;;;;;;;5.60;5.20;;;33.00;38.70;;;;;;6148298;23;20452;-86
2021/09/22 11:59:43;;;;;;;5.77;5.27;;;32.10;39.40;;;;;;6137698;23;20447;-86
2021/09/22 12:02:10;;;;;;;5.80;5.30;;;30.50;41.20;;;;;;6134704;23;20494;-86
2021/09/22 12:04:38;;;;;;;6.07;5.57;;;29.70;42.80;;;;;;6131986;23;20494;-85
2021/09/22 12:07:06;;;;;;;5.50;5.10;;;29.10;43.20;;;;;;6128694;23;20796;-85
2021/09/22 12:09:44;;;;;;;8.17;6.00;;;28.70;44.80;;;;;;6127049;23;20455;-86
2021/09/22 12:12:17;;;;;;;5.33;4.93;;;28.40;45.10;;;;;;6127238;23;20399;-86
2021/09/22 12:14:49;;;;;;;6.10;5.60;;;28.40;45.80;;;;;;6128122;23;20392;-86
2021/09/22 12:17:19;;;;;;;5.00;4.60;;;29.00;44.90;;;;;;6126982;23;20420;-86
2021/09/22 12:19:47;;;;;;;5.77;5.27;;;29.90;43.70;;;;;;6135786;23;20415;-86
2021/09/22 12:22:15;;;;;;;6.93;6.30;;;30.40;42.80;;;;;;6126330;23;20419;-86
2021/09/22 12:24:45;;;;;;;6.37;5.87;;;31.30;41.90;;;;;;6127002;23;20435;-86
2021/09/22 12:27:17;;;;;;;5.77;5.37;;;31.80;40.50;;;;;;6135329;23;20743;-87
2021/09/22 12:29:56;;;;;;;5.90;5.40;;;30.90;40.80;;;;;;6126004;23;20443;-87
2021/09/22 12:32:25;;;;;;;5.63;5.23;;;30.80;42.20;;;;;;6139375;23;20501;-86
2021/09/22 12:37:38;;;;;;;4.90;4.60;;;30.80;41.60;;;;;;6126953;23;20469;-86
2021/09/22 12:40:10;;;;;;;5.90;5.40;;;30.60;41.90;;;;;;6131792;23;20407;-87
2021/09/22 12:42:44;;;;;;;5.10;4.70;;;30.50;41.80;;;;;;6145875;23;20421;-86